Aérodrome :







RETROUVEZ-NOUS SUR...

 
LOGIN :

S'inscrire | Disclaimer

   EN    FR    IT 

 









Légende :    VFR   VFR Marginal   IFR   IFR Intensif   IFR Très Intensif
Visi : 
Plafond : 
>= 8 km
>= 3000ft
5 à 8 km
1000 à 3000 ft
1500m à 5 km
500 à 1000 ft
800 à 1500m
200 à 500 ft
< 800m
< 200 ft
Symboles :   Orages  Brouillard  Fortes neiges  Fortes précipitations  Vent > 20 kt






- Altitude de l'aérodrome : 100 ft
- Code IATA : PSM


KPSM - Portsmouth International at Pease

DERNIER METAR :
  • 150139Z 17009KT 2 1/2SM BR OVC001 13/13 A2908 RMK A02A SLP850

METARs EXPIRÉS :
  • 150120Z 15011KT 1 1/2SM BR OVC001 12/12 A2909 RMK A02A SLP853
  • 150056Z 14009KT 5/8SM R34/P6000FT BR OVC001 12/12 A2910 RMK AO2A SLP857 T01150115
  • 150042Z 14011KT 3/4SM R34/P6000FT BR OVC001 12/12 A2912 RMK A02A SLP864
  • 150030Z 14011KT 3/8SM R34/3500FT OVC001 FG OVC001 12/12 A2912 RMK A02A SLP864
  • 142356Z 14007KT 1/4SM R34/4500FT FG VV003 11/11 A2914 RMK AO2A DZB12E25 SLP870 P0000 60001 T01110109 10111 20092 57043
  • 142313Z 13005KT 1/2SM R34/P6000FT -DZ FG OVC001 10/10 A2917 RMK AO2A PRESFR SLP881

TAF KPSM
Valide du 15 à 00h jusqu'au 16 à 00h UTC


142320Z 1500/1524 VRB03KT 1/2SM -DZ FG OVC001 WS020/20040KT
TEMPO 1500/1504 P6SM NSW OVC035
FM150900 25014G25KT P6SM SCT120



MET'MAP, la Météo Aéronautique d'un coup d'oeil ! - Copyright ORBIFLY Décembre 2007 - Disclaimer

ORBIFLY MET'MAP TEAM :

Programmation & Développement : Alexandra Zaïnal
Sur une idée originale de : Baudouin d'Aumeries
Assistance à la programmation : Marc-Olivier Méhu
Soutien technique & logistique : Manuel Goepfert

Contact : metmap@orbifly.com




SOURCES & CREDITS :

   NOAA